Time;durP1;ratioP1;P1;durP2;ratioP2;P2;SDS_P1;SDS_P2;PMS_P1;PMS_P2;Temp;Humidity;BMP_temperature;BMP_pressure;BME280_temperature;BME280_humidity;BME280_pressure;Samples;Min_cycle;Max_cycle;Signal;HPM_P1;HPM_P2
2024/01/12 00:00:21;;;;;;;1.10;1.10;;;;;;;-0.36;100.00;37168.97;5030878;28;20551;-66
2024/01/12 00:02:47;;;;;;;1.20;1.20;;;;;;;-0.40;100.00;38123.03;5030902;28;20176;-64
2024/01/12 00:05:12;;;;;;;1.20;1.20;;;;;;;-0.16;100.00;33677.31;5031314;28;20208;-63
2024/01/12 00:07:37;;;;;;;1.10;1.10;;;;;;;-0.07;100.00;31135.00;5031209;28;20217;-65
2024/01/12 00:10:03;;;;;;;1.60;1.50;;;;;;;-0.14;100.00;26994.13;5030858;28;20189;-65
2024/01/12 00:12:29;;;;;;;1.10;1.10;;;;;;;-0.37;100.00;20947.00;5030960;28;20292;-65
2024/01/12 00:14:54;;;;;;;1.23;1.23;;;;;;;-0.47;100.00;16504.44;5035882;28;20328;-65
2024/01/12 00:17:20;;;;;;;1.20;1.20;;;;;;;-0.22;100.00;15879.81;5030622;28;20190;-64
2024/01/12 00:19:46;;;;;;;1.80;1.70;;;;;;;-0.55;100.00;15234.50;5031111;28;20178;-64
2024/01/12 00:22:11;;;;;;;1.50;1.40;;;;;;;-0.03;100.00;16521.13;5030161;28;20248;-64
2024/01/12 00:24:37;;;;;;;1.60;1.50;;;;;;;-0.35;100.00;14291.25;5030742;28;20236;-64
2024/01/12 00:27:02;;;;;;;1.30;1.30;;;;;;;-0.22;100.00;14295.75;5031006;28;20642;-65
2024/01/12 00:29:28;;;;;;;1.87;1.77;;;;;;;-0.22;100.00;13979.03;5030684;28;20184;-64
2024/01/12 00:31:54;;;;;;;1.37;1.27;;;;;;;-0.33;100.00;14291.94;5030514;28;20198;-65
2024/01/12 00:34:19;;;;;;;1.50;1.40;;;;;;;-0.30;100.00;13976.31;5030664;28;20562;-64
2024/01/12 00:36:46;;;;;;;4.27;1.83;;;;;;;-0.34;100.00;11442.94;5030698;28;20208;-65
2024/01/12 00:39:12;;;;;;;1.23;1.23;;;;;;;-0.11;100.00;11766.38;5030765;28;20173;-67
2024/01/12 00:41:37;;;;;;;1.20;1.20;;;;;;;-0.08;100.00;14300.63;5030781;28;20216;-64
2024/01/12 00:44:04;;;;;;;1.87;1.77;;;;;;;-0.26;100.00;10179.81;5030389;28;20286;-65
2024/01/12 00:46:30;;;;;;;2.70;2.50;;;;;;;-0.55;100.00;7011.69;5030586;28;20179;-63
2024/01/12 00:48:55;;;;;;;1.17;1.17;;;;;;;-0.57;100.00;4485.38;5033156;28;20547;-65
2024/01/12 00:51:20;;;;;;;1.73;1.63;;;;;;;-0.81;100.00;-1192.91;5034450;28;20766;-67
2024/01/12 00:53:46;;;;;;;1.50;1.40;;;;;;;-0.67;100.00;-3081.25;5034365;28;20567;-65
2024/01/12 00:56:11;;;;;;;1.20;1.20;;;;;;;-0.66;100.00;383.84;5034419;28;20693;-62
2024/01/12 00:58:37;;;;;;;1.40;1.30;;;;;;;-0.77;100.00;1643.28;5034318;28;20194;-67
2024/01/12 01:01:03;;;;;;;1.30;1.30;;;;;;;-0.41;100.00;9226.91;5034197;28;20608;-66
2024/01/12 01:03:29;;;;;;;5.60;1.40;;;;;;;-0.82;100.00;11428.59;5032389;28;20266;-68
2024/01/12 01:05:55;;;;;;;1.13;1.13;;;;;;;-0.54;100.00;26653.97;5034236;28;20172;-65
2024/01/12 01:08:20;;;;;;;1.30;1.30;;;;;;;-0.47;100.00;50707.56;5034141;28;20708;-65
2024/01/12 01:10:46;;;;;;;1.10;1.10;;;;;;;-0.68;100.00;56123.06;5034113;28;20177;-65
2024/01/12 01:13:13;;;;;;;1.13;1.13;;;;;;;-0.20;98.56;58321.06;5033975;28;20593;-65
2024/01/12 01:15:38;;;;;;;1.40;1.40;;;;;;;-0.09;95.73;58963.09;5033919;28;20178;-63
2024/01/12 01:18:04;;;;;;;1.50;1.40;;;;;;;-0.08;93.50;59247.06;5033656;28;20184;-67
2024/01/12 01:20:29;;;;;;;1.10;1.10;;;;;;;-0.23;91.82;59476.84;5038963;28;20185;-63
2024/01/12 01:22:55;;;;;;;1.87;1.73;;;;;;;0.02;91.17;59588.75;5033885;28;20198;-65
2024/01/12 01:25:20;;;;;;;1.20;1.20;;;;;;;-0.02;93.56;59547.78;5032158;28;20585;-67
2024/01/12 01:27:45;;;;;;;1.60;1.50;;;;;;;-0.11;98.68;59331.56;5033597;28;20175;-62
2024/01/12 01:30:11;;;;;;;1.10;1.10;;;;;;;-0.20;100.00;59287.06;5033435;28;20676;-62
2024/01/12 01:32:37;;;;;;;1.03;1.03;;;;;;;-0.66;97.52;59352.09;5032404;28;20230;-63
2024/01/12 01:35:02;;;;;;;1.20;1.20;;;;;;;-0.66;97.08;59394.72;5033527;28;20176;-64
2024/01/12 01:37:28;;;;;;;1.83;1.73;;;;;;;-0.62;98.23;59371.00;5033644;28;20177;-66
2024/01/12 01:39:53;;;;;;;1.10;1.10;;;;;;;-0.59;96.39;59447.00;5033357;28;20255;-67
2024/01/12 01:42:19;;;;;;;1.10;1.10;;;;;;;-0.66;97.29;59409.75;5033399;28;20275;-65
2024/01/12 01:44:44;;;;;;;1.30;1.30;;;;;;;-0.52;95.62;59404.63;5033399;28;20183;-63
2024/01/12 01:47:10;;;;;;;1.60;1.50;;;;;;;-0.46;97.34;59404.31;5032955;28;20227;-66
2024/01/12 01:49:36;;;;;;;1.20;1.20;;;;;;;-0.40;97.84;59427.94;5033289;28;20176;-63
2024/01/12 01:52:03;;;;;;;1.27;1.27;;;;;;;-0.46;98.78;59356.66;5033093;28;20273;-66
2024/01/12 01:54:29;;;;;;;1.30;1.30;;;;;;;-0.66;98.74;59394.16;5032956;28;20200;-64
2024/01/12 01:56:55;;;;;;;1.20;1.20;;;;;;;-0.47;100.00;59442.75;5033150;28;20557;-63
2024/01/12 01:59:21;;;;;;;1.60;1.50;;;;;;;-0.35;100.00;59305.03;5032170;28;20197;-65
2024/01/12 02:01:46;;;;;;;1.10;1.10;;;;;;;-0.62;100.00;59168.00;5032968;28;20652;-64
2024/01/12 02:04:12;;;;;;;1.20;1.20;;;;;;;-0.28;100.00;59200.50;5033192;28;20631;-65
2024/01/12 02:06:38;;;;;;;1.17;1.17;;;;;;;-0.55;100.00;59215.81;5031910;28;20227;-66
2024/01/12 02:09:04;;;;;;;1.80;1.50;;;;;;;-0.54;98.74;59302.72;5033333;28;20165;-67
2024/01/12 02:11:29;;;;;;;1.10;1.10;;;;;;;-0.14;96.52;59428.59;5033060;28;20536;-67
2024/01/12 02:13:56;;;;;;;1.30;1.30;;;;;;;-0.21;95.97;59499.13;5032933;28;20204;-63
2024/01/12 02:16:22;;;;;;;2.27;1.83;;;;;;;-0.12;95.62;59508.56;5032375;28;20629;-64
2024/01/12 02:18:47;;;;;;;1.50;1.40;;;;;;;-0.04;95.69;59512.97;5032710;28;20177;-65
2024/01/12 02:21:12;;;;;;;1.43;1.40;;;;;;;-0.30;96.11;59456.56;5031389;28;20187;-65
2024/01/12 02:23:38;;;;;;;1.83;1.73;;;;;;;-0.30;97.61;59476.06;5035779;28;20648;-64
2024/01/12 02:26:03;;;;;;;1.50;1.40;;;;;;;-0.41;99.94;59341.03;5035078;28;20169;-66
2024/01/12 02:28:31;;;;;;;1.37;1.30;;;;;;;-0.40;100.00;59192.25;5032456;28;20229;-64
2024/01/12 02:30:56;;;;;;;1.10;1.10;;;;;;;-0.45;100.00;58848.34;5032101;28;20232;-64
2024/01/12 02:33:22;;;;;;;1.30;1.30;;;;;;;-0.33;100.00;58137.03;5032516;28;20536;-66
2024/01/12 02:35:47;;;;;;;1.13;1.13;;;;;;;-0.75;100.00;57274.97;5032457;28;20170;-66
2024/01/12 02:38:13;;;;;;;1.20;1.20;;;;;;;-0.74;100.00;56422.72;5032483;28;20208;-65
2024/01/12 02:40:38;;;;;;;1.30;1.30;;;;;;;-0.42;100.00;56047.72;5031037;28;20225;-65
2024/01/12 02:43:04;;;;;;;1.07;1.07;;;;;;;-0.82;100.00;55920.63;5032538;28;20180;-66
2024/01/12 02:45:29;;;;;;;1.20;1.20;;;;;;;-0.68;100.00;56986.94;5031880;28;20169;-64
2024/01/12 02:47:54;;;;;;;1.23;1.23;;;;;;;-0.37;100.00;57636.41;5032552;28;20168;-66
2024/01/12 02:50:20;;;;;;;1.70;1.60;;;;;;;-0.34;100.00;58484.38;5032438;28;20205;-62
2024/01/12 02:52:45;;;;;;;1.20;1.20;;;;;;;-0.23;100.00;58774.66;5031982;28;20684;-64
2024/01/12 02:55:11;;;;;;;1.23;1.23;;;;;;;-0.51;100.00;59015.25;5030799;28;20191;-66
2024/01/12 02:57:36;;;;;;;1.40;1.30;;;;;;;-0.46;100.00;59075.34;5031823;28;20179;-61
2024/01/12 03:00:01;;;;;;;1.33;1.33;;;;;;;-0.19;99.63;59195.38;5031603;28;20234;-63
2024/01/12 03:02:27;;;;;;;1.10;1.10;;;;;;;-0.36;99.13;59194.16;5031997;28;20668;-63
2024/01/12 03:04:52;;;;;;;1.00;1.00;;;;;;;-0.51;99.16;59195.72;5031838;28;20655;-66
2024/01/12 03:07:17;;;;;;;1.20;1.20;;;;;;;-0.37;97.62;59328.44;5031178;28;20187;-64
2024/01/12 03:09:43;;;;;;;1.10;1.10;;;;;;;-0.26;98.56;59267.88;5031932;28;20257;-64
2024/01/12 03:12:08;;;;;;;1.10;1.10;;;;;;;-0.11;96.45;59369.75;5031171;28;20189;-65
2024/01/12 03:14:34;;;;;;;1.30;1.30;;;;;;;-0.19;96.34;59418.59;5031273;28;20655;-66
2024/01/12 03:17:00;;;;;;;1.70;1.60;;;;;;;-0.50;95.41;59434.41;5031739;28;20611;-66
2024/01/12 03:19:25;;;;;;;1.80;1.70;;;;;;;-0.35;94.80;59473.59;5031852;28;20197;-63
2024/01/12 03:21:51;;;;;;;1.70;1.60;;;;;;;-0.41;93.83;59509.56;5031468;28;20608;-64
2024/01/12 03:24:16;;;;;;;1.30;1.20;;;;;;;-0.40;93.98;59478.09;5031435;28;20174;-66
2024/01/12 03:26:41;;;;;;;1.30;1.20;;;;;;;-0.04;94.41;59507.38;5031348;28;20217;-67
2024/01/12 03:29:07;;;;;;;1.20;1.20;;;;;;;-0.42;94.54;59495.94;5036402;28;20544;-66
2024/01/12 03:31:33;;;;;;;1.97;1.67;;;;;;;-0.31;94.33;59520.66;5031517;28;20403;-68
2024/01/12 03:33:58;;;;;;;1.70;1.60;;;;;;;-0.11;94.92;59530.28;5031881;28;20793;-64
2024/01/12 03:36:23;;;;;;;1.10;1.10;;;;;;;-0.18;93.89;59590.25;5031252;28;20245;-65
2024/01/12 03:38:49;;;;;;;2.53;2.00;;;;;;;0.01;91.96;59568.13;5031117;28;20268;-66
2024/01/12 03:41:14;;;;;;;1.07;1.07;;;;;;;-0.11;91.77;59650.72;5031042;28;20178;-65
2024/01/12 03:43:40;;;;;;;1.10;1.10;;;;;;;-0.33;92.22;59601.22;5030742;28;20228;-66
2024/01/12 03:46:05;;;;;;;1.33;1.33;;;;;;;-0.35;93.31;59583.94;5031038;28;20297;-66
2024/01/12 03:48:32;;;;;;;1.20;1.20;;;;;;;-0.34;93.12;59562.47;5031353;28;20164;-64
2024/01/12 03:50:57;;;;;;;1.23;1.23;;;;;;;-0.53;93.51;59541.41;5030997;28;20241;-65
2024/01/12 03:53:23;;;;;;;1.10;1.10;;;;;;;-0.50;93.20;59567.28;5031001;28;20176;-62
2024/01/12 03:55:48;;;;;;;1.20;1.20;;;;;;;-0.65;92.01;59595.78;5031077;28;20168;-65
2024/01/12 03:58:14;;;;;;;1.43;1.37;;;;;;;-0.44;90.25;59847.25;5030813;28;20295;-63
2024/01/12 04:00:39;;;;;;;1.10;1.10;;;;;;;-0.35;87.59;59902.41;5030827;28;20184;-62
2024/01/12 04:03:05;;;;;;;1.53;1.43;;;;;;;-0.14;87.60;59729.59;5030953;28;20170;-68
2024/01/12 04:05:30;;;;;;;1.47;1.40;;;;;;;-0.53;89.23;59704.91;5030977;28;20177;-66
2024/01/12 04:07:55;;;;;;;1.43;1.37;;;;;;;-0.57;90.50;59689.88;5031063;28;20183;-65
2024/01/12 04:10:21;;;;;;;1.43;1.33;;;;;;;-0.26;89.59;59736.31;5030841;28;20172;-64
2024/01/12 04:12:46;;;;;;;1.10;1.10;;;;;;;-0.35;89.31;59709.31;5030747;28;20260;-65
2024/01/12 04:15:12;;;;;;;1.30;1.30;;;;;;;-0.35;90.04;59686.19;5030591;28;20209;-67
2024/01/12 04:17:37;;;;;;;1.20;1.20;;;;;;;-0.47;89.96;59666.47;5031026;28;20632;-61
2024/01/12 04:20:03;;;;;;;1.40;1.30;;;;;;;-0.42;90.10;59718.53;5030815;28;20181;-66
2024/01/12 04:22:28;;;;;;;1.13;1.13;;;;;;;-0.79;90.65;59693.56;5031225;28;20234;-68
2024/01/12 04:24:54;;;;;;;1.30;1.30;;;;;;;-0.79;89.69;59686.03;5042875;28;20186;-66
2024/01/12 04:27:19;;;;;;;1.30;1.30;;;;;;;-0.40;89.61;59731.34;5034899;28;20334;-65
2024/01/12 04:29:45;;;;;;;1.60;1.50;;;;;;;-0.40;89.22;59698.19;5034538;28;20169;-65
2024/01/12 04:32:10;;;;;;;1.30;1.30;;;;;;;-0.41;89.80;59755.28;5034762;28;20245;-64
2024/01/12 04:34:36;;;;;;;1.60;1.50;;;;;;;-0.40;88.49;59693.72;5040133;28;20174;-65
2024/01/12 04:37:03;;;;;;;2.13;1.97;;;;;;;-0.56;87.35;59769.25;5034619;28;20198;-66
2024/01/12 04:39:28;;;;;;;1.20;1.20;;;;;;;-0.39;86.59;59794.59;5034779;28;20255;-66
2024/01/12 04:41:54;;;;;;;1.83;1.73;;;;;;;-0.73;87.61;59767.88;5034489;28;20310;-66
2024/01/12 04:44:19;;;;;;;1.30;1.30;;;;;;;-0.45;88.85;59738.31;5034444;28;20180;-63
2024/01/12 04:46:45;;;;;;;1.63;1.53;;;;;;;-0.40;89.02;59728.28;5034249;28;20176;-63
2024/01/12 04:49:10;;;;;;;1.30;1.30;;;;;;;-0.47;88.15;59741.13;5034578;28;20191;-65
2024/01/12 04:51:36;;;;;;;1.20;1.20;;;;;;;-0.72;88.60;59753.41;5034222;28;20206;-71
2024/01/12 04:54:01;;;;;;;1.10;1.10;;;;;;;-0.62;88.47;59905.47;5034163;28;20180;-65
2024/01/12 04:56:26;;;;;;;3.70;2.70;;;;;;;-0.40;87.95;59949.50;5034158;28;20708;-65
2024/01/12 04:58:52;;;;;;;1.00;1.00;;;;;;;-0.71;87.78;59740.03;5033996;28;20514;-66
2024/01/12 05:01:18;;;;;;;1.20;1.20;;;;;;;-0.42;85.92;59816.31;5034273;28;20176;-66
2024/01/12 05:03:43;;;;;;;1.10;1.10;;;;;;;-0.52;86.54;59785.69;5034168;28;20180;-63
2024/01/12 05:06:10;;;;;;;1.27;1.27;;;;;;;-0.71;86.57;59785.16;5034087;28;20226;-66
2024/01/12 05:08:36;;;;;;;1.20;1.20;;;;;;;-0.79;87.16;59731.16;5034009;28;20703;-69
2024/01/12 05:11:02;;;;;;;1.00;1.00;;;;;;;-0.46;87.91;59912.72;5033670;28;20256;-65
2024/01/12 05:13:28;;;;;;;4.53;1.47;;;;;;;-0.72;88.34;59730.84;5033293;28;20167;-66
2024/01/12 05:15:53;;;;;;;1.27;1.23;;;;;;;-0.67;90.16;59887.34;5033814;28;20257;-63
2024/01/12 05:18:19;;;;;;;1.60;1.50;;;;;;;-0.78;89.46;59722.22;5034408;28;20164;-61
2024/01/12 05:20:44;;;;;;;2.20;1.67;;;;;;;-0.84;89.32;59715.00;5033881;28;20221;-64
2024/01/12 05:23:09;;;;;;;1.20;1.20;;;;;;;-0.52;87.21;59776.22;5033434;28;20190;-66
2024/01/12 05:25:35;;;;;;;1.13;1.13;;;;;;;-0.71;87.24;59869.81;5033554;28;20204;-66
2024/01/12 05:28:00;;;;;;;1.50;1.40;;;;;;;-0.82;86.89;59752.28;5033028;28;20175;-67
2024/01/12 05:30:26;;;;;;;1.30;1.30;;;;;;;-0.52;87.49;59748.66;5033441;28;20252;-67
2024/01/12 05:32:51;;;;;;;1.20;1.20;;;;;;;-0.39;88.07;59827.75;5033339;28;20315;-65
2024/01/12 05:35:17;;;;;;;1.60;1.50;;;;;;;-0.43;88.23;59785.69;5032016;28;20174;-63
2024/01/12 05:37:42;;;;;;;1.93;1.83;;;;;;;-0.44;88.58;59749.47;5033609;28;20201;-63
2024/01/12 05:40:08;;;;;;;1.50;1.40;;;;;;;-0.72;87.60;59783.47;5038184;28;20171;-68
2024/01/12 05:42:33;;;;;;;1.90;1.80;;;;;;;-0.76;86.50;59774.00;5033306;28;20271;-66
2024/01/12 05:44:59;;;;;;;1.27;1.27;;;;;;;-0.57;86.29;59808.25;5033419;28;20529;-66
2024/01/12 05:47:24;;;;;;;1.90;1.80;;;;;;;-1.23;86.26;59707.25;5033108;28;20176;-62
2024/01/12 05:49:50;;;;;;;1.20;1.20;;;;;;;-0.64;84.56;59819.94;5033238;28;20315;-65
2024/01/12 05:52:15;;;;;;;1.60;1.50;;;;;;;-0.42;85.51;59839.44;5033229;28;20584;-66
2024/01/12 05:54:40;;;;;;;1.17;1.17;;;;;;;-0.65;84.37;59791.28;5033321;28;20195;-64
2024/01/12 05:57:06;;;;;;;1.20;1.20;;;;;;;-0.55;83.75;59782.91;5033112;28;20169;-65
2024/01/12 05:59:33;;;;;;;1.50;1.40;;;;;;;-0.49;84.47;59849.19;5033166;28;20262;-66
2024/01/12 06:01:58;;;;;;;1.37;1.33;;;;;;;-0.75;85.22;59762.59;5033030;28;20175;-67
2024/01/12 06:04:24;;;;;;;1.37;1.33;;;;;;;-0.68;86.43;59785.41;5033050;28;20566;-65
2024/01/12 06:06:49;;;;;;;1.07;1.07;;;;;;;-0.66;86.71;59926.06;5033218;28;20180;-64
2024/01/12 06:09:15;;;;;;;1.97;1.63;;;;;;;-0.67;86.86;59794.06;5033209;28;20187;-62
2024/01/12 06:11:44;;;;;;;1.27;1.27;;;;;;;-0.55;87.43;59767.84;5032565;28;20682;-65
2024/01/12 06:14:10;;;;;;;1.10;1.10;;;;;;;-0.83;87.94;59748.69;5033017;28;20636;-62
2024/01/12 06:16:35;;;;;;;1.30;1.30;;;;;;;-0.50;87.52;59770.34;5032769;28;20178;-66
2024/01/12 06:19:01;;;;;;;1.20;1.20;;;;;;;-0.84;87.99;59875.38;5032556;28;20178;-67
2024/01/12 06:21:27;;;;;;;1.30;1.30;;;;;;;-0.78;86.40;59756.75;5032951;28;20180;-66
2024/01/12 06:23:52;;;;;;;1.50;1.40;;;;;;;-0.73;86.68;59719.69;5031045;28;20192;-66
2024/01/12 06:26:18;;;;;;;1.03;1.03;;;;;;;-0.43;86.81;59810.19;5032326;28;20213;-68
2024/01/12 06:28:43;;;;;;;1.20;1.20;;;;;;;-0.42;86.10;59806.28;5033644;28;20255;-68
2024/01/12 06:31:09;;;;;;;1.20;1.20;;;;;;;-0.56;86.11;59977.34;5038811;28;20672;-66
2024/01/12 06:33:34;;;;;;;1.37;1.33;;;;;;;-0.31;86.38;60014.72;5031926;28;20229;-64
2024/01/12 06:36:03;;;;;;;3.57;2.17;;;;;;;-0.33;87.06;60007.47;5030568;28;20185;-67
2024/01/12 06:38:28;;;;;;;1.07;1.07;;;;;;;-0.29;87.16;59753.59;5032248;28;20197;-66
2024/01/12 06:40:54;;;;;;;1.20;1.20;;;;;;;-0.32;87.39;59812.97;5031750;28;20177;-67
2024/01/12 06:43:20;;;;;;;1.47;1.37;;;;;;;-0.14;86.94;60006.09;5035898;28;20622;-62
2024/01/12 06:45:45;;;;;;;1.50;1.40;;;;;;;-0.13;87.53;59813.50;5032701;28;20257;-64
2024/01/12 06:48:11;;;;;;;1.27;1.27;;;;;;;0.05;85.95;59836.03;5031859;28;20268;-66
2024/01/12 06:50:36;;;;;;;1.53;1.43;;;;;;;0.00;85.81;59833.00;5030376;28;20288;-64
2024/01/12 06:53:08;;;;;;;1.47;1.37;;;;;;;0.07;86.10;59847.75;5031902;28;20200;-63
2024/01/12 06:55:34;;;;;;;1.10;1.10;;;;;;;0.11;85.78;59814.56;5031770;28;20166;-70
2024/01/12 06:58:00;;;;;;;1.70;1.60;;;;;;;-0.17;86.75;59829.09;5031973;28;20252;-66
2024/01/12 07:00:26;;;;;;;1.77;1.67;;;;;;;0.18;86.19;59835.47;5032047;28;20264;-66
2024/01/12 07:02:51;;;;;;;1.20;1.20;;;;;;;0.08;85.50;59853.88;5031916;28;20601;-68
2024/01/12 07:05:17;;;;;;;4.50;1.60;;;;;;;0.37;85.77;59863.59;5031413;28;20193;-66
2024/01/12 07:07:43;;;;;;;2.03;1.87;;;;;;;0.52;84.55;59897.88;5031179;28;20186;-65
2024/01/12 07:10:11;;;;;;;2.13;2.03;;;;;;;0.46;84.00;59926.38;5030934;28;20525;-70
2024/01/12 07:12:36;;;;;;;1.47;1.43;;;;;;;1.10;83.06;59958.94;5031620;28;20207;-68
2024/01/12 07:15:02;;;;;;;1.53;1.43;;;;;;;1.19;82.32;59968.97;5031446;28;20171;-66
2024/01/12 07:17:27;;;;;;;1.43;1.33;;;;;;;1.47;82.82;59974.50;5031285;28;20179;-63
2024/01/12 07:19:52;;;;;;;1.67;1.57;;;;;;;1.13;82.86;59974.84;5031286;28;20258;-65
2024/01/12 07:22:18;;;;;;;2.50;1.73;;;;;;;1.42;81.88;59977.03;5031411;28;20175;-66
2024/01/12 07:24:43;;;;;;;1.30;1.30;;;;;;;1.47;82.32;59990.16;5031258;28;20942;-66
2024/01/12 07:27:09;;;;;;;1.20;1.20;;;;;;;1.46;81.14;59978.41;5031284;28;20233;-66
2024/01/12 07:29:34;;;;;;;1.40;1.37;;;;;;;1.73;79.05;60008.53;5031130;28;20190;-68
2024/01/12 07:32:00;;;;;;;1.20;1.20;;;;;;;1.81;79.55;60022.47;5029612;28;20191;-66
2024/01/12 07:34:25;;;;;;;1.70;1.60;;;;;;;1.75;78.59;60036.50;5031242;28;20175;-71
2024/01/12 07:36:50;;;;;;;1.80;1.70;;;;;;;1.76;80.13;60072.81;5031411;28;20172;-70
2024/01/12 07:39:16;;;;;;;1.50;1.40;;;;;;;1.60;80.49;60029.25;5030938;28;20254;-64
2024/01/12 07:41:42;;;;;;;1.10;1.10;;;;;;;1.29;80.06;60025.38;5031629;28;20175;-67
2024/01/12 07:44:08;;;;;;;1.67;1.57;;;;;;;1.43;80.04;60002.72;5031183;28;20270;-65
2024/01/12 07:46:36;;;;;;;2.47;1.70;;;;;;;1.29;79.53;60198.91;5031012;28;20258;-67
2024/01/12 07:49:02;;;;;;;1.87;1.60;;;;;;;1.25;80.45;60051.66;5036493;28;20175;-62
2024/01/12 07:51:27;;;;;;;1.10;1.10;;;;;;;1.20;80.10;60003.31;5031101;28;20198;-64
2024/01/12 07:53:52;;;;;;;1.77;1.67;;;;;;;0.92;80.80;59949.47;5030343;28;20237;-62
2024/01/12 07:56:18;;;;;;;1.87;1.77;;;;;;;1.16;83.25;59975.66;5031430;28;20619;-66
2024/01/12 07:58:43;;;;;;;1.80;1.70;;;;;;;0.89;83.94;59986.88;5029932;28;20183;-67
2024/01/12 08:01:13;;;;;;;1.33;1.27;;;;;;;0.93;84.25;59942.47;5030744;28;20199;-65
2024/01/12 08:03:39;;;;;;;1.80;1.70;;;;;;;1.26;84.76;59954.69;5030747;28;20553;-65
2024/01/12 08:06:06;;;;;;;1.90;1.80;;;;;;;1.28;82.81;59986.56;5030717;28;20614;-67
2024/01/12 08:08:32;;;;;;;1.57;1.47;;;;;;;1.12;82.75;59978.75;5030579;28;20261;-66
2024/01/12 08:10:57;;;;;;;1.30;1.30;;;;;;;1.57;82.81;60016.38;5031117;28;20619;-62
2024/01/12 08:13:24;;;;;;;1.70;1.60;;;;;;;1.34;83.47;60015.88;5030988;28;20528;-66
2024/01/12 08:15:50;;;;;;;1.93;1.47;;;;;;;1.47;83.30;59994.63;5030823;28;20221;-63
2024/01/12 08:18:16;;;;;;;1.60;1.50;;;;;;;1.80;83.03;59980.56;5030630;28;20254;-64
2024/01/12 08:20:41;;;;;;;1.27;1.27;;;;;;;1.52;80.83;60035.97;5030935;28;20258;-68
2024/01/12 08:23:06;;;;;;;1.60;1.50;;;;;;;1.66;81.44;60187.50;5030760;28;20176;-66
2024/01/12 08:25:32;;;;;;;1.10;1.10;;;;;;;1.84;80.17;60068.06;5031126;28;20253;-67
2024/01/12 08:27:57;;;;;;;1.20;1.20;;;;;;;2.01;78.65;60079.50;5031569;28;20237;-66
2024/01/12 08:30:23;;;;;;;1.60;1.50;;;;;;;2.13;77.98;60075.81;5029953;28;20183;-69
2024/01/12 08:32:48;;;;;;;2.13;1.53;;;;;;;1.97;78.28;60063.00;5030557;28;20266;-66
2024/01/12 08:35:13;;;;;;;1.20;1.20;;;;;;;2.15;76.86;60138.50;5030683;28;20183;-68
2024/01/12 08:37:39;;;;;;;1.00;1.00;;;;;;;2.06;75.06;60030.25;5030567;28;20186;-65
2024/01/12 08:40:05;;;;;;;1.20;1.20;;;;;;;2.29;75.04;60130.38;5030594;28;20181;-63
2024/01/12 08:42:31;;;;;;;1.40;1.33;;;;;;;2.24;73.65;60105.19;5030949;28;20202;-64
2024/01/12 08:44:56;;;;;;;1.30;1.30;;;;;;;2.29;74.16;60135.41;5030522;28;20612;-62
2024/01/12 08:47:22;;;;;;;1.10;1.10;;;;;;;2.29;74.64;60110.78;5030439;28;20651;-64
2024/01/12 08:49:47;;;;;;;2.50;1.40;;;;;;;2.71;73.95;60182.38;5030367;28;20208;-66
2024/01/12 08:52:13;;;;;;;1.17;1.17;;;;;;;2.68;72.95;60118.53;5034636;28;20195;-64
2024/01/12 08:54:38;;;;;;;1.10;1.10;;;;;;;2.61;73.55;60148.50;5031466;28;20521;-67
2024/01/12 08:57:04;;;;;;;1.30;1.30;;;;;;;2.29;73.24;60110.78;5030794;28;20521;-67
2024/01/12 08:59:29;;;;;;;1.13;1.13;;;;;;;2.44;73.92;60324.06;5030413;28;20183;-64
2024/01/12 09:01:56;;;;;;;1.30;1.20;;;;;;;2.59;74.33;60154.38;5030240;28;20233;-64
2024/01/12 09:04:23;;;;;;;1.97;1.80;;;;;;;2.34;73.11;60116.38;5030165;28;20175;-65
2024/01/12 09:06:48;;;;;;;1.20;1.20;;;;;;;2.75;71.96;60198.88;5029913;28;20178;-66
2024/01/12 09:09:14;;;;;;;1.37;1.27;;;;;;;2.76;71.65;60185.44;5032041;28;20561;-63
2024/01/12 09:11:39;;;;;;;1.50;1.40;;;;;;;2.76;71.97;60127.47;5033849;28;20309;-64
2024/01/12 09:14:05;;;;;;;1.13;1.13;;;;;;;2.90;71.61;60147.59;5033516;28;20229;-67
2024/01/12 09:16:30;;;;;;;1.57;1.47;;;;;;;2.83;73.24;60150.41;5033783;28;20176;-63
2024/01/12 09:18:56;;;;;;;1.27;1.27;;;;;;;2.85;72.72;60199.97;5033932;28;20167;-64
2024/01/12 09:21:23;;;;;;;2.03;1.83;;;;;;;2.96;72.02;60205.28;5033470;28;20176;-62
2024/01/12 09:23:48;;;;;;;1.90;1.80;;;;;;;2.94;71.48;60184.84;5034093;28;20163;-65
2024/01/12 09:26:14;;;;;;;1.50;1.40;;;;;;;3.37;72.15;60229.84;5033919;28;20160;-65
2024/01/12 09:28:39;;;;;;;1.60;1.50;;;;;;;3.12;71.63;60184.78;5033584;28;20171;-67
2024/01/12 09:31:06;;;;;;;1.93;1.83;;;;;;;3.13;72.45;60228.78;5033312;28;20246;-67
2024/01/12 09:33:32;;;;;;;2.00;1.80;;;;;;;3.32;73.18;60224.25;5033026;28;20238;-67
2024/01/12 09:35:58;;;;;;;1.80;1.60;;;;;;;3.43;73.39;60229.53;5048225;28;20661;-64
2024/01/12 09:38:23;;;;;;;1.70;1.60;;;;;;;3.44;74.14;60235.16;5033621;28;20168;-65
2024/01/12 09:40:49;;;;;;;1.23;1.23;;;;;;;3.40;74.44;60251.44;5033352;28;20645;-65
2024/01/12 09:43:15;;;;;;;1.27;1.23;;;;;;;3.27;73.33;60410.97;5033016;28;20179;-66
2024/01/12 09:45:45;;;;;;;1.60;1.50;;;;;;;3.58;72.94;60260.34;5033056;28;20657;-65
2024/01/12 09:48:13;;;;;;;3.23;2.53;;;;;;;3.62;72.41;60239.56;5032918;28;20175;-64
2024/01/12 09:50:40;;;;;;;1.20;1.20;;;;;;;3.83;72.56;60286.38;5033456;28;20162;-64
2024/01/12 09:53:06;;;;;;;1.30;1.30;;;;;;;3.87;71.36;60268.13;5033043;28;20205;-67
2024/01/12 09:55:32;;;;;;;1.80;1.70;;;;;;;3.66;72.91;60233.94;5033265;28;20172;-66
2024/01/12 09:57:58;;;;;;;1.63;1.53;;;;;;;3.99;72.98;60299.22;5037745;28;20210;-64
2024/01/12 10:00:26;;;;;;;1.30;1.30;;;;;;;4.12;72.16;60282.91;5032969;28;20178;-64
2024/01/12 10:02:52;;;;;;;1.53;1.43;;;;;;;3.92;71.11;60336.31;5032795;28;20362;-68
2024/01/12 10:05:18;;;;;;;1.33;1.30;;;;;;;3.76;71.66;60369.44;5033043;28;20198;-66
2024/01/12 10:07:43;;;;;;;1.53;1.43;;;;;;;3.93;71.30;60269.22;5032490;28;20564;-64
2024/01/12 10:10:09;;;;;;;1.63;1.53;;;;;;;4.19;68.44;60343.81;5032823;28;20164;-64
2024/01/12 10:12:34;;;;;;;1.40;1.30;;;;;;;3.95;68.03;60287.19;5032834;28;20292;-67
2024/01/12 10:15:02;;;;;;;1.57;1.47;;;;;;;4.30;67.65;60287.88;5032567;28;20180;-65
2024/01/12 10:17:28;;;;;;;1.50;1.40;;;;;;;4.47;68.31;60354.41;5032241;28;20180;-68
2024/01/12 10:19:55;;;;;;;1.90;1.80;;;;;;;4.62;67.03;60347.91;5032006;28;20175;-65
2024/01/12 10:22:20;;;;;;;1.50;1.40;;;;;;;4.63;66.63;60369.22;5032349;28;20172;-64
2024/01/12 10:24:46;;;;;;;1.67;1.57;;;;;;;4.32;65.80;60400.78;5032871;28;20227;-62
2024/01/12 10:27:13;;;;;;;1.87;1.77;;;;;;;4.86;67.27;60374.78;5032781;28;20560;-65
2024/01/12 10:29:38;;;;;;;1.63;1.53;;;;;;;4.94;65.57;60393.31;5032873;28;20183;-64
2024/01/12 10:32:05;;;;;;;1.30;1.30;;;;;;;4.92;66.32;60393.59;5031511;28;20265;-66
2024/01/12 10:34:33;;;;;;;1.60;1.50;;;;;;;5.05;65.17;60334.78;5032204;28;20206;-67
2024/01/12 10:36:59;;;;;;;1.70;1.60;;;;;;;5.33;66.80;60429.41;5032408;28;20622;-66
2024/01/12 10:39:27;;;;;;;2.27;2.07;;;;;;;5.07;64.77;60521.75;5032326;28;20275;-67
2024/01/12 10:41:56;;;;;;;1.23;1.23;;;;;;;5.46;65.61;60633.34;5032250;28;20258;-65
2024/01/12 10:44:26;;;;;;;1.37;1.30;;;;;;;5.44;66.08;60456.41;5032091;28;20182;-67
2024/01/12 10:47:01;;;;;;;1.83;1.70;;;;;;;5.44;67.64;60423.47;5031947;28;20191;-67
2024/01/12 10:49:28;;;;;;;2.17;1.97;;;;;;;5.79;65.93;60478.47;5030198;28;20238;-67
2024/01/12 10:52:21;;;;;;;2.00;1.83;;;;;;;5.57;65.18;60468.44;5030022;28;20230;-66
2024/01/12 10:54:58;;;;;;;1.93;1.83;;;;;;;5.57;62.94;60455.78;5030103;28;20160;-64
2024/01/12 10:57:26;;;;;;;1.23;1.23;;;;;;;5.33;62.94;60397.06;5029792;28;20762;-64
2024/01/12 10:59:52;;;;;;;2.07;1.97;;;;;;;5.49;64.13;60469.59;5030242;28;20175;-64
2024/01/12 11:02:18;;;;;;;1.60;1.47;;;;;;;5.45;65.05;60404.91;5036295;28;20542;-62
2024/01/12 11:04:45;;;;;;;1.70;1.60;;;;;;;5.42;64.36;60444.56;5032012;28;20258;-64
2024/01/12 11:07:12;;;;;;;1.90;1.80;;;;;;;5.38;64.90;60434.47;5032038;28;20183;-66
2024/01/12 11:09:37;;;;;;;2.07;1.87;;;;;;;5.23;65.54;60431.44;5031542;28;20176;-66
2024/01/12 11:12:11;;;;;;;4.30;1.70;;;;;;;5.48;66.52;60422.91;5032077;28;20725;-65
2024/01/12 11:14:38;;;;;;;1.30;1.30;;;;;;;5.45;64.74;60401.81;5032110;28;20250;-64
2024/01/12 11:17:05;;;;;;;1.47;1.40;;;;;;;5.69;66.42;60405.91;5032315;28;20191;-66
2024/01/12 11:19:32;;;;;;;1.80;1.70;;;;;;;5.78;63.76;60423.59;5031813;28;20177;-68
2024/01/12 11:22:08;;;;;;;1.50;1.40;;;;;;;5.58;65.39;60566.38;5031747;28;20175;-68
2024/01/12 11:24:35;;;;;;;1.63;1.53;;;;;;;5.37;65.03;60420.69;5031638;28;20251;-62
2024/01/12 11:27:00;;;;;;;1.93;1.83;;;;;;;5.73;62.97;60628.28;5031506;28;20176;-67
2024/01/12 11:29:30;;;;;;;2.43;2.23;;;;;;;5.71;63.97;60463.88;5031637;28;20179;-63